createdAt,value
2023-05-19T07:25:59.181Z,103198.00
2023-05-19T07:28:26.176Z,103182.19
2023-05-19T07:30:53.432Z,103187.28
2023-05-19T07:33:20.368Z,103185.19
2023-05-19T07:35:47.629Z,103184.53
2023-05-19T07:38:14.526Z,103182.63
2023-05-19T07:40:41.511Z,103174.78
2023-05-19T07:43:08.468Z,103174.47
2023-05-19T07:45:35.416Z,103169.97
2023-05-19T07:48:02.458Z,103168.53
2023-05-19T07:50:29.636Z,103155.56
2023-05-19T07:52:56.692Z,103169.28
2023-05-19T07:55:23.646Z,103158.72
2023-05-19T07:57:51.258Z,103152.16
2023-05-19T08:00:18.547Z,103160.19
2023-05-19T08:02:45.895Z,103157.09
2023-05-19T08:05:12.909Z,103165.13
2023-05-19T08:07:40.164Z,103160.13
2023-05-19T08:10:07.624Z,103155.88
2023-05-19T08:12:34.555Z,103154.44
2023-05-19T08:15:02.024Z,103154.91
2023-05-19T08:17:29.165Z,103154.59
2023-05-19T08:19:56.219Z,103148.16
2023-05-19T08:22:23.216Z,103138.53
2023-05-19T08:24:51.921Z,103148.72
2023-05-19T08:27:18.990Z,103148.28
2023-05-19T08:29:46.037Z,103145.22
2023-05-19T08:32:13.482Z,103144.44
2023-05-19T08:34:41.494Z,103137.03
2023-05-19T08:37:08.535Z,103138.06
2023-05-19T08:39:35.671Z,103131.31
2023-05-19T08:42:02.716Z,103132.44
2023-05-19T08:44:31.036Z,103129.00
2023-05-19T08:47:03.066Z,103118.03
2023-05-19T08:49:33.591Z,103122.97
2023-05-19T08:52:17.313Z,103126.25
2023-05-19T08:54:51.026Z,103116.75
2023-05-19T08:57:18.978Z,103118.63
2023-05-19T08:59:46.360Z,103109.97
2023-05-19T09:02:14.533Z,103121.94
2023-05-19T09:04:46.122Z,103119.13
2023-05-19T09:07:16.959Z,103114.38
2023-05-19T09:09:44.214Z,103113.81
2023-05-19T09:12:11.635Z,103115.84
2023-05-19T09:14:39.120Z,103103.47
2023-05-19T09:17:06.816Z,103102.13
2023-05-19T09:19:34.048Z,103098.75
2023-05-19T09:22:03.880Z,103098.16
2023-05-19T09:24:31.168Z,103090.47
2023-05-19T09:27:00.080Z,103092.03
2023-05-19T09:29:27.455Z,103085.75
2023-05-19T09:32:05.454Z,103098.28
2023-05-19T09:34:32.620Z,103102.56
2023-05-19T09:37:00.051Z,103103.53
2023-05-19T09:39:28.979Z,103105.66
2023-05-19T09:41:58.752Z,103094.66
2023-05-19T09:44:30.561Z,103103.44
2023-05-19T09:46:58.866Z,103108.16
2023-05-19T09:49:30.750Z,103113.59
2023-05-19T09:51:59.117Z,103117.72
2023-05-19T09:54:29.845Z,103112.22
2023-05-19T09:57:07.760Z,103117.59
2023-05-19T09:59:35.888Z,103123.13
2023-05-19T10:02:03.175Z,103124.81
2023-05-19T10:04:31.312Z,103124.34
2023-05-19T10:07:01.799Z,103134.56
2023-05-19T10:09:30.113Z,103103.59
2023-05-19T10:11:59.133Z,103128.75
2023-05-19T10:14:27.801Z,103132.41
2023-05-19T10:16:56.631Z,103124.44
2023-05-19T10:19:26.694Z,103131.31
2023-05-19T10:21:54.423Z,103130.22
2023-05-19T10:24:21.825Z,103130.63
2023-05-19T10:26:54.248Z,103133.00
2023-05-19T10:29:27.653Z,103125.69
2023-05-19T10:32:01.388Z,103134.25
2023-05-19T10:35:02.401Z,103148.94
2023-05-19T10:37:46.959Z,103137.97
2023-05-19T10:40:22.104Z,103131.94
2023-05-19T10:43:17.454Z,103137.56
2023-05-19T10:45:58.121Z,103133.97
2023-05-19T10:48:25.167Z,103140.72
2023-05-19T10:50:56.619Z,103141.13
2023-05-19T10:53:31.551Z,103139.00
2023-05-19T10:56:02.756Z,103137.81
2023-05-19T10:58:44.616Z,103135.03
2023-05-19T11:01:19.799Z,103130.13
2023-05-19T11:03:54.910Z,103140.06
2023-05-19T11:06:28.258Z,103131.28
2023-05-19T11:09:15.686Z,103129.72
2023-05-19T11:11:54.114Z,103142.38
2023-05-19T11:14:25.493Z,103140.97
2023-05-19T11:16:56.904Z,103141.34
2023-05-19T11:19:35.732Z,103133.28
2023-05-19T11:22:13.539Z,103136.06
2023-05-19T11:24:52.495Z,103134.03
2023-05-19T11:27:37.624Z,103139.34
2023-05-19T11:30:16.095Z,103133.91
2023-05-19T11:32:44.481Z,103137.53
2023-05-19T11:35:11.620Z,103127.59
2023-05-19T11:37:40.754Z,103131.16
2023-05-19T11:40:08.485Z,103125.13
2023-05-19T11:42:37.230Z,103122.09
2023-05-19T11:45:05.381Z,103116.28
2023-05-19T11:47:45.909Z,103113.31
2023-05-19T11:50:20.587Z,103112.13
2023-05-19T11:52:47.813Z,103093.19
2023-05-19T11:55:18.718Z,103105.47
2023-05-19T11:58:04.656Z,103094.75
2023-05-19T12:00:39.839Z,103100.25
2023-05-19T12:03:08.360Z,103098.28
2023-05-19T12:05:43.431Z,103092.84
2023-05-19T12:08:12.209Z,103087.94
2023-05-19T12:10:40.221Z,103093.09
2023-05-19T12:13:10.713Z,103088.91
2023-05-19T12:15:39.023Z,103098.25
2023-05-19T12:18:06.826Z,103104.81
2023-05-19T12:20:36.328Z,103098.97
2023-05-19T12:23:04.185Z,103098.69
2023-05-19T12:25:32.366Z,103093.25
2023-05-19T12:28:03.228Z,103103.03
2023-05-19T12:30:31.821Z,103094.84
2023-05-19T12:32:59.281Z,103103.47
2023-05-19T12:35:28.016Z,103103.25
2023-05-19T12:37:55.334Z,103092.81
2023-05-19T12:40:22.750Z,103100.06
2023-05-19T12:42:52.108Z,103104.06
2023-05-19T12:45:22.933Z,103086.59
2023-05-19T12:47:51.948Z,103080.50
2023-05-19T12:50:19.502Z,103084.25
2023-05-19T12:52:53.573Z,103092.47
2023-05-19T12:55:21.158Z,103085.78
2023-05-19T12:57:58.131Z,103089.81
2023-05-19T13:00:29.123Z,103094.56
2023-05-19T13:03:00.403Z,103093.28
2023-05-19T13:05:33.854Z,103092.38
2023-05-19T13:08:11.019Z,103096.75
2023-05-19T13:10:39.952Z,103091.91
2023-05-19T13:13:08.577Z,103099.28
2023-05-19T13:15:39.051Z,103100.72
2023-05-19T13:18:09.064Z,103102.84
2023-05-19T13:20:37.560Z,103103.31
2023-05-19T13:23:06.092Z,103103.19
2023-05-19T13:25:34.515Z,103098.13
2023-05-19T13:28:05.156Z,103096.00
2023-05-19T13:30:33.446Z,103107.19
2023-05-19T13:33:00.600Z,103104.22
2023-05-19T13:35:27.611Z,103099.91
2023-05-19T13:37:54.846Z,103097.72
2023-05-19T13:40:23.195Z,103094.09
2023-05-19T13:42:50.152Z,103099.81
2023-05-19T13:45:17.190Z,103103.53
2023-05-19T13:47:44.163Z,103096.78
2023-05-19T13:50:11.285Z,103089.81
2023-05-19T13:52:38.334Z,103092.25
2023-05-19T13:55:06.819Z,103097.38
2023-05-19T13:57:34.267Z,103095.25
2023-05-19T14:00:03.716Z,103093.69
2023-05-19T14:02:31.507Z,103098.50
2023-05-19T14:04:58.586Z,103099.84
2023-05-19T14:07:25.895Z,103091.16
2023-05-19T14:09:53.151Z,103088.06
2023-05-19T14:12:23.184Z,103077.66
2023-05-19T14:14:52.455Z,103080.06
2023-05-19T14:17:19.342Z,103085.00
2023-05-19T14:19:46.244Z,103086.84
2023-05-19T14:22:13.725Z,103086.84
2023-05-19T14:24:41.715Z,103079.16
2023-05-19T14:27:08.668Z,103084.03
2023-05-19T14:29:35.660Z,103087.66
2023-05-19T14:32:03.992Z,103077.94
2023-05-19T14:34:31.041Z,103079.03
2023-05-19T14:36:58.003Z,103072.81
2023-05-19T14:39:24.928Z,103076.91
2023-05-19T14:41:53.141Z,103079.63
2023-05-19T14:44:20.147Z,103081.94
2023-05-19T14:46:47.153Z,103087.31
2023-05-19T14:49:14.252Z,103080.72
2023-05-19T14:51:41.135Z,103083.00
2023-05-19T14:54:08.192Z,103089.50
2023-05-19T14:56:35.290Z,103081.19
2023-05-19T14:59:02.281Z,103077.63
2023-05-19T15:01:29.290Z,103070.97
2023-05-19T15:03:56.445Z,103089.97
2023-05-19T15:06:23.783Z,103080.72
2023-05-19T15:08:51.131Z,103076.19
2023-05-19T15:11:18.033Z,103080.09
2023-05-19T15:13:45.209Z,103075.06
2023-05-19T15:18:42.045Z,103072.81
2023-05-19T15:21:08.980Z,103074.31
2023-05-19T15:23:35.996Z,103070.28
2023-05-19T15:26:03.275Z,103074.81
2023-05-19T15:28:30.328Z,103056.63
2023-05-19T15:30:57.242Z,103060.41
2023-05-19T15:33:24.265Z,103054.31
2023-05-19T15:35:52.599Z,103062.50
2023-05-19T15:38:20.016Z,103048.69
2023-05-19T15:40:47.056Z,103054.00
2023-05-19T15:43:14.298Z,103042.53
2023-05-19T15:45:41.417Z,103048.63
2023-05-19T15:48:08.822Z,103042.06
2023-05-19T15:50:36.461Z,103036.28
2023-05-19T15:53:03.671Z,103035.09
2023-05-19T15:55:30.724Z,103036.31
2023-05-19T15:57:57.867Z,103032.09
2023-05-19T16:00:24.812Z,103029.78
2023-05-19T16:02:51.752Z,103036.19
2023-05-19T16:05:18.902Z,103036.81
2023-05-19T16:07:45.766Z,103041.66
2023-05-19T16:10:12.715Z,103034.59
2023-05-19T16:12:39.766Z,103028.41
2023-05-19T16:15:07.201Z,103030.88
2023-05-19T16:17:34.876Z,103035.69
2023-05-19T16:20:01.910Z,103035.31
2023-05-19T16:22:30.349Z,103030.97
2023-05-19T16:24:57.277Z,103030.81
2023-05-19T16:27:24.330Z,103027.97
2023-05-19T16:29:51.222Z,103034.13
2023-05-19T16:32:18.169Z,103035.00
2023-05-19T16:34:45.012Z,103034.47
2023-05-19T16:37:11.855Z,103033.78
2023-05-19T16:39:38.794Z,103024.56
2023-05-19T16:42:05.956Z,103027.88
2023-05-19T16:44:32.956Z,103023.41
2023-05-19T16:47:00.093Z,103019.19
2023-05-19T16:49:27.145Z,103018.75
2023-05-19T16:51:54.340Z,103026.34
2023-05-19T16:54:21.841Z,103035.00
2023-05-19T16:56:50.228Z,103037.38
2023-05-19T16:59:17.586Z,103033.69
2023-05-19T17:01:44.835Z,103036.78
2023-05-19T17:04:12.028Z,103031.06
2023-05-19T17:06:39.026Z,103034.09
2023-05-19T17:09:05.961Z,103035.06
2023-05-19T17:11:32.862Z,103025.47
2023-05-19T17:13:59.905Z,103022.91
2023-05-19T17:16:26.886Z,103028.66
2023-05-19T17:18:53.926Z,103027.16
2023-05-19T17:21:20.902Z,103025.50
2023-05-19T17:23:48.302Z,103014.09
2023-05-19T17:26:16.382Z,103023.22
2023-05-19T17:28:43.270Z,103028.72
2023-05-19T17:31:12.116Z,103025.84
2023-05-19T17:33:39.428Z,103021.03
2023-05-19T17:36:07.389Z,103027.69
2023-05-19T17:38:34.493Z,103030.28
2023-05-19T17:41:09.783Z,103025.09
2023-05-19T17:43:37.584Z,103024.53
2023-05-19T17:46:05.292Z,103024.63
2023-05-19T17:48:32.704Z,103029.69
2023-05-19T17:51:00.665Z,103028.13
2023-05-19T17:53:27.967Z,103032.19
2023-05-19T17:56:06.699Z,103030.75
2023-05-19T17:58:33.993Z,103031.66
2023-05-19T18:01:01.106Z,103034.66
2023-05-19T18:03:28.795Z,103035.19
2023-05-19T18:05:56.071Z,103032.75
2023-05-19T18:08:23.259Z,103031.00
2023-05-19T18:10:51.856Z,103038.00
2023-05-19T18:13:18.856Z,103035.25
2023-05-19T18:15:45.734Z,103027.03
2023-05-19T18:18:12.760Z,103037.50
2023-05-19T18:20:41.418Z,103030.31
2023-05-19T18:23:08.353Z,103037.91
2023-05-19T18:25:35.814Z,103042.22
2023-05-19T18:28:02.735Z,103039.03
2023-05-19T18:30:29.756Z,103034.41
2023-05-19T18:32:57.412Z,103034.31
2023-05-19T18:35:24.270Z,103034.13
2023-05-19T18:37:54.550Z,103039.44
2023-05-19T18:40:21.477Z,103033.34
2023-05-19T18:42:48.453Z,103034.63
2023-05-19T18:45:15.427Z,103024.00
2023-05-19T18:47:42.497Z,103032.06
2023-05-19T18:50:09.468Z,103034.63
2023-05-19T18:52:36.441Z,103030.53
2023-05-19T18:55:03.968Z,103025.59
2023-05-19T18:57:30.952Z,103028.81
2023-05-19T18:59:58.264Z,103030.78
2023-05-19T19:02:25.251Z,103043.66
2023-05-19T19:04:52.176Z,103040.66
2023-05-19T19:07:19.197Z,103036.81
2023-05-19T19:09:46.262Z,103039.41
2023-05-19T19:12:13.104Z,103046.13
2023-05-19T19:14:39.981Z,103046.19
2023-05-19T19:17:06.884Z,103045.13
2023-05-19T19:19:33.862Z,103050.28
2023-05-19T19:22:00.839Z,103054.88
2023-05-19T19:24:28.633Z,103049.94
2023-05-19T19:26:55.587Z,103052.38
2023-05-19T19:29:22.623Z,103053.66
2023-05-19T19:31:49.657Z,103055.66
2023-05-19T19:34:19.850Z,103054.75
2023-05-19T19:36:47.989Z,103054.09
2023-05-19T19:39:15.372Z,103059.09
2023-05-19T19:41:42.518Z,103056.81
2023-05-19T19:44:09.526Z,103058.88
2023-05-19T19:46:36.520Z,103051.13
2023-05-19T19:49:03.552Z,103045.19
2023-05-19T19:51:31.639Z,103051.41
2023-05-19T19:53:59.269Z,103056.41
2023-05-19T19:56:27.776Z,103056.00
2023-05-19T19:58:56.862Z,103044.91
2023-05-19T20:01:28.068Z,103049.25
2023-05-19T20:03:56.926Z,103046.47
2023-05-19T20:06:23.962Z,103045.81
2023-05-19T20:08:51.008Z,103049.66
2023-05-19T20:11:17.965Z,103046.38
2023-05-19T20:13:44.892Z,103041.44
2023-05-19T20:16:11.964Z,103045.09
2023-05-19T20:18:39.785Z,103056.78
2023-05-19T20:21:06.865Z,103055.22
2023-05-19T20:23:34.072Z,103062.63
2023-05-19T20:26:11.855Z,103058.53
2023-05-19T20:28:40.460Z,103063.94
2023-05-19T20:31:07.629Z,103052.56
2023-05-19T20:33:34.878Z,103059.84
2023-05-19T20:36:01.939Z,103056.41
2023-05-19T20:38:28.934Z,103060.97
2023-05-19T20:40:55.824Z,103062.41
2023-05-19T20:43:22.765Z,103058.09
2023-05-19T20:45:49.736Z,103065.97
2023-05-19T20:48:16.714Z,103062.00
2023-05-19T20:50:43.671Z,103064.91
2023-05-19T20:53:10.756Z,103071.38
2023-05-19T20:55:39.252Z,103074.88
2023-05-19T20:58:06.347Z,103075.09
2023-05-19T21:00:33.756Z,103071.78
2023-05-19T21:03:01.628Z,103071.78
2023-05-19T21:05:28.656Z,103072.34
2023-05-19T21:07:55.705Z,103079.28
2023-05-19T21:10:22.792Z,103082.63
2023-05-19T21:12:49.845Z,103076.81
2023-05-19T21:15:16.923Z,103074.97
2023-05-19T21:17:43.854Z,103078.50
2023-05-19T21:20:11.300Z,103082.84
2023-05-19T21:22:38.351Z,103081.16
2023-05-19T21:25:06.243Z,103085.47
2023-05-19T21:27:35.604Z,103079.03
2023-05-19T21:30:02.763Z,103067.47
2023-05-19T21:32:29.880Z,103075.78
2023-05-19T21:34:56.964Z,103072.88
2023-05-19T21:37:23.849Z,103083.69
2023-05-19T21:39:50.898Z,103079.94
2023-05-19T21:42:18.144Z,103078.97
2023-05-19T21:44:45.002Z,103079.44
2023-05-19T21:47:11.984Z,103082.88
2023-05-19T21:49:40.415Z,103084.38
2023-05-19T21:52:08.128Z,103080.50
2023-05-19T21:54:36.312Z,103074.94
2023-05-19T21:57:03.337Z,103084.50
2023-05-19T21:59:31.063Z,103085.66
2023-05-19T22:01:58.665Z,103082.31
2023-05-19T22:04:25.974Z,103083.25
2023-05-19T22:06:52.876Z,103081.56
2023-05-19T22:09:19.777Z,103079.03
2023-05-19T22:11:46.652Z,103079.88
2023-05-19T22:14:13.922Z,103079.03
2023-05-19T22:16:41.289Z,103075.53
2023-05-19T22:19:08.370Z,103069.25
2023-05-19T22:21:35.306Z,103078.97
2023-05-19T22:24:02.713Z,103083.72
2023-05-19T22:26:29.924Z,103090.84
2023-05-19T22:28:57.119Z,103084.59
2023-05-19T22:31:24.054Z,103083.72
2023-05-19T22:33:51.106Z,103084.03
2023-05-19T22:36:18.043Z,103088.22
2023-05-19T22:38:45.013Z,103091.13
2023-05-19T22:41:11.944Z,103084.19
2023-05-19T22:43:38.982Z,103088.47
2023-05-19T22:46:06.153Z,103080.75
2023-05-19T22:48:33.229Z,103090.28
2023-05-19T22:51:00.275Z,103086.88
2023-05-19T22:53:27.184Z,103081.66
2023-05-19T22:55:54.073Z,103087.03
2023-05-19T22:58:20.959Z,103089.56
2023-05-19T23:00:47.897Z,103088.84
2023-05-19T23:03:14.835Z,103093.31
2023-05-19T23:05:41.736Z,103094.34
2023-05-19T23:08:08.646Z,103094.47
2023-05-19T23:10:35.737Z,103090.72
2023-05-19T23:13:02.621Z,103097.09
2023-05-19T23:15:29.733Z,103094.66
2023-05-19T23:17:56.697Z,103104.38
2023-05-19T23:20:23.613Z,103099.19
2023-05-19T23:22:50.569Z,103097.53
2023-05-19T23:25:17.817Z,103103.72
2023-05-19T23:27:46.630Z,103089.63
2023-05-19T23:30:13.608Z,103102.97
2023-05-19T23:32:41.190Z,103101.97
2023-05-19T23:35:17.009Z,103099.94
2023-05-19T23:37:44.218Z,103102.75
2023-05-19T23:40:11.748Z,103098.50
2023-05-19T23:42:38.822Z,103096.50
2023-05-19T23:45:06.434Z,103091.94
2023-05-19T23:47:33.390Z,103094.63
2023-05-19T23:50:00.372Z,103092.97
2023-05-19T23:52:27.424Z,103094.91
2023-05-19T23:54:54.383Z,103090.59
2023-05-19T23:57:21.567Z,103094.47
2023-05-19T23:59:48.615Z,103081.31
